createdAt,value
2022-09-10T00:01:59.657Z,5.40
2022-09-10T00:05:02.544Z,5.27
2022-09-10T00:08:05.127Z,5.23
2022-09-10T00:11:07.907Z,4.80
2022-09-10T00:14:12.171Z,5.43
2022-09-10T00:17:13.766Z,5.20
2022-09-10T00:20:15.347Z,5.57
2022-09-10T00:23:19.095Z,5.23
2022-09-10T00:26:22.031Z,5.80
2022-09-10T00:29:23.601Z,5.67
2022-09-10T00:32:25.215Z,5.50
2022-09-10T00:35:26.763Z,5.97
2022-09-10T00:38:30.046Z,6.27
2022-09-10T00:41:33.632Z,5.50
2022-09-10T00:44:41.125Z,5.60
2022-09-10T00:47:44.916Z,5.50
2022-09-10T00:50:48.502Z,5.17
2022-09-10T00:53:50.854Z,5.23
2022-09-10T00:56:54.073Z,5.27
2022-09-10T00:59:59.174Z,5.53
2022-09-10T01:03:01.975Z,5.07
2022-09-10T01:06:03.935Z,5.20
2022-09-10T01:09:06.347Z,4.90
2022-09-10T01:12:26.996Z,5.10
2022-09-10T01:15:39.138Z,5.40
2022-09-10T01:18:50.492Z,4.70
2022-09-10T01:21:55.272Z,5.00
2022-09-10T01:25:03.110Z,5.30
2022-09-10T01:28:07.946Z,5.47
2022-09-10T01:31:15.714Z,5.40
2022-09-10T01:34:24.717Z,5.30
2022-09-10T01:37:30.368Z,5.33
2022-09-10T01:40:33.693Z,5.70
2022-09-10T01:43:39.340Z,5.53
2022-09-10T01:46:50.157Z,5.43
2022-09-10T01:50:10.326Z,5.23
2022-09-10T01:53:35.574Z,6.07
2022-09-10T01:56:43.433Z,5.57
2022-09-10T01:59:56.762Z,5.73
2022-09-10T02:03:01.665Z,5.33
2022-09-10T02:06:07.724Z,5.80
2022-09-10T02:09:10.578Z,5.93
2022-09-10T02:12:19.141Z,6.00
2022-09-10T02:15:32.865Z,6.13
2022-09-10T02:18:55.388Z,6.50
2022-09-10T02:21:57.961Z,6.43
2022-09-10T02:24:59.717Z,6.50
2022-09-10T02:28:01.392Z,7.07
2022-09-10T02:31:03.313Z,6.60
2022-09-10T02:34:05.135Z,6.97
2022-09-10T02:37:06.840Z,7.77
2022-09-10T02:40:11.584Z,7.20
2022-09-10T02:43:13.323Z,6.90
2022-09-10T02:46:15.125Z,6.90
2022-09-10T02:49:18.088Z,7.73
2022-09-10T02:52:21.105Z,6.90
2022-09-10T02:55:22.854Z,6.73
2022-09-10T02:58:24.688Z,6.77
2022-09-10T03:01:26.566Z,6.73
2022-09-10T03:04:34.667Z,7.47
2022-09-10T03:07:37.308Z,6.63
2022-09-10T03:10:39.538Z,7.10
2022-09-10T03:13:42.611Z,7.00
2022-09-10T03:16:44.243Z,7.17
2022-09-10T03:19:45.830Z,7.37
2022-09-10T03:22:47.642Z,7.33
2022-09-10T03:25:50.863Z,7.90
2022-09-10T03:28:59.499Z,7.87
2022-09-10T03:32:04.086Z,7.37
2022-09-10T03:35:06.202Z,8.07
2022-09-10T03:38:07.817Z,7.67
2022-09-10T03:41:10.137Z,7.07
2022-09-10T03:44:12.925Z,7.63
2022-09-10T03:47:14.653Z,8.00
2022-09-10T03:50:17.126Z,7.67
2022-09-10T03:53:19.440Z,7.93
2022-09-10T03:56:21.320Z,7.70
2022-09-10T03:59:23.123Z,7.70
2022-09-10T04:02:24.884Z,8.10
2022-09-10T04:05:27.597Z,7.77
2022-09-10T04:08:29.188Z,7.73
2022-09-10T04:11:31.109Z,8.97
2022-09-10T04:14:33.332Z,7.80
2022-09-10T04:17:36.308Z,7.43
2022-09-10T04:20:39.064Z,7.60
2022-09-10T04:23:43.976Z,8.50
2022-09-10T04:26:45.649Z,8.00
2022-09-10T04:29:50.714Z,7.93
2022-09-10T04:32:53.102Z,8.73
2022-09-10T04:35:56.392Z,8.27
2022-09-10T04:38:59.139Z,7.93
2022-09-10T04:42:01.275Z,7.53
2022-09-10T04:45:03.506Z,7.47
2022-09-10T04:48:07.224Z,7.33
2022-09-10T04:51:17.493Z,7.03
2022-09-10T04:54:24.063Z,7.60
2022-09-10T04:57:27.996Z,7.57
2022-09-10T05:00:29.735Z,7.60
2022-09-10T05:03:31.414Z,7.10
2022-09-10T05:06:34.120Z,7.77
2022-09-10T05:09:36.150Z,7.37
2022-09-10T05:12:38.892Z,7.60
2022-09-10T05:15:41.628Z,7.60
2022-09-10T05:18:44.024Z,7.47
2022-09-10T05:21:46.278Z,7.13
2022-09-10T05:24:47.980Z,7.77
2022-09-10T05:27:51.287Z,7.33
2022-09-10T05:30:55.241Z,6.90
2022-09-10T05:34:01.213Z,8.30
2022-09-10T05:37:03.707Z,10.00
2022-09-10T05:40:09.239Z,7.60
2022-09-10T05:43:14.320Z,7.90
2022-09-10T05:46:18.580Z,8.37
2022-09-10T05:49:24.299Z,7.27
2022-09-10T05:52:26.752Z,9.03
2022-09-10T05:55:33.381Z,8.70
2022-09-10T05:58:35.613Z,8.27
2022-09-10T06:01:37.894Z,8.00
2022-09-10T06:04:40.984Z,7.37
2022-09-10T06:07:43.460Z,7.43
2022-09-10T06:10:54.059Z,6.63
2022-09-10T06:13:55.797Z,6.20
2022-09-10T06:16:57.315Z,6.43
2022-09-10T06:20:01.271Z,6.43
2022-09-10T06:23:06.440Z,6.33
2022-09-10T06:26:10.668Z,7.30
2022-09-10T06:29:12.479Z,8.00
2022-09-10T06:32:15.579Z,7.90
2022-09-10T06:35:19.027Z,7.37
2022-09-10T06:38:21.262Z,8.50
2022-09-10T06:41:23.103Z,7.07
2022-09-10T06:44:39.565Z,7.00
2022-09-10T06:48:37.573Z,7.47
2022-09-10T06:51:29.542Z,6.30
2022-09-10T06:54:31.396Z,6.50
2022-09-10T06:57:44.975Z,6.67
2022-09-10T07:00:48.505Z,7.28
2022-09-10T07:03:56.959Z,7.28
2022-09-10T07:07:00.768Z,6.32
2022-09-10T07:10:04.555Z,6.63
2022-09-10T07:13:06.749Z,6.37
2022-09-10T07:16:08.915Z,7.43
2022-09-10T07:19:11.080Z,6.93
2022-09-10T07:22:17.584Z,6.87
2022-09-10T07:25:21.412Z,7.20
2022-09-10T07:28:43.646Z,7.40
2022-09-10T07:31:47.307Z,8.07
2022-09-10T07:34:56.008Z,6.63
2022-09-10T07:38:00.190Z,7.70
2022-09-10T07:41:03.255Z,7.90
2022-09-10T07:44:04.915Z,7.93
2022-09-10T07:47:12.760Z,6.70
2022-09-10T07:50:14.982Z,6.23
2022-09-10T07:53:17.913Z,7.10
2022-09-10T07:56:23.137Z,7.20
2022-09-10T07:59:25.716Z,7.10
2022-09-10T08:02:35.611Z,7.03
2022-09-10T08:05:39.608Z,6.90
2022-09-10T08:08:42.833Z,6.57
2022-09-10T08:11:46.825Z,6.77
2022-09-10T08:14:52.205Z,6.80
2022-09-10T08:17:55.652Z,5.97
2022-09-10T08:20:57.454Z,7.93
2022-09-10T08:24:01.448Z,6.50
2022-09-10T08:27:04.624Z,5.53
2022-09-10T08:30:07.064Z,6.00
2022-09-10T08:33:09.297Z,6.93
2022-09-10T08:36:14.987Z,5.78
2022-09-10T08:39:16.557Z,6.75
2022-09-10T08:42:21.648Z,6.20
2022-09-10T08:45:27.555Z,6.45
2022-09-10T08:48:32.692Z,6.50
2022-09-10T08:51:41.014Z,5.87
2022-09-10T08:54:47.332Z,5.72
2022-09-10T08:57:52.063Z,6.10
2022-09-10T09:00:58.793Z,6.05
2022-09-10T09:04:08.055Z,6.07
2022-09-10T09:07:19.888Z,6.40
2022-09-10T09:10:24.883Z,5.80
2022-09-10T09:13:32.138Z,6.63
2022-09-10T09:16:54.655Z,6.20
2022-09-10T09:20:05.539Z,6.65
2022-09-10T09:23:25.149Z,4.60
2022-09-10T09:26:34.981Z,4.95
2022-09-10T09:29:44.723Z,5.90
2022-09-10T09:32:49.097Z,4.88
2022-09-10T09:35:52.583Z,5.22
2022-09-10T09:38:56.497Z,5.55
2022-09-10T09:42:05.874Z,4.55
2022-09-10T09:45:28.370Z,8.23
2022-09-10T09:48:37.658Z,5.20
2022-09-10T09:51:40.643Z,5.32
2022-09-10T09:55:13.414Z,5.40
2022-09-10T09:58:22.066Z,6.10
2022-09-10T10:01:24.757Z,4.25
2022-09-10T10:04:30.943Z,4.65
2022-09-10T10:07:34.211Z,4.95
2022-09-10T10:10:35.833Z,5.25
2022-09-10T10:13:41.489Z,4.82
2022-09-10T10:16:43.157Z,6.22
2022-09-10T10:19:56.009Z,5.15
2022-09-10T10:22:59.232Z,4.20
2022-09-10T10:26:15.733Z,7.18
2022-09-10T10:29:18.549Z,6.13
2022-09-10T10:32:20.739Z,5.38
2022-09-10T10:35:23.376Z,5.40
2022-09-10T10:38:25.334Z,5.10
2022-09-10T10:41:26.853Z,5.13
2022-09-10T10:44:36.733Z,5.38
2022-09-10T10:47:44.520Z,5.32
2022-09-10T10:50:53.072Z,5.15
2022-09-10T10:53:57.503Z,7.50
2022-09-10T10:57:10.294Z,5.82
2022-09-10T11:00:13.750Z,6.25
2022-09-10T11:03:34.365Z,6.03
2022-09-10T11:06:39.560Z,5.03
2022-09-10T11:09:50.451Z,5.53
2022-09-10T11:12:52.040Z,5.43
2022-09-10T11:15:59.389Z,5.38
2022-09-10T11:19:04.098Z,5.50
2022-09-10T11:22:35.384Z,5.75
2022-09-10T11:25:44.920Z,5.43
2022-09-10T11:28:49.818Z,6.78
2022-09-10T11:32:14.418Z,6.50
2022-09-10T11:35:22.272Z,7.75
2022-09-10T11:38:27.274Z,5.85
2022-09-10T11:41:30.231Z,7.28
2022-09-10T11:44:36.551Z,6.72
2022-09-10T11:47:44.763Z,6.07
2022-09-10T11:50:48.884Z,6.05
2022-09-10T11:53:50.693Z,6.18
2022-09-10T11:57:06.632Z,5.88
2022-09-10T12:00:16.046Z,5.80
2022-09-10T12:03:29.983Z,6.80
2022-09-10T12:06:31.594Z,6.40
2022-09-10T12:09:42.822Z,7.78
2022-09-10T12:12:45.906Z,6.22
2022-09-10T12:15:58.879Z,6.03
2022-09-10T12:19:01.605Z,6.05
2022-09-10T12:22:09.324Z,6.38
2022-09-10T12:25:14.092Z,5.43
2022-09-10T12:28:34.392Z,6.10
2022-09-10T12:31:59.028Z,5.88
2022-09-10T12:35:19.295Z,6.57
2022-09-10T12:38:39.966Z,5.57
2022-09-10T12:41:41.503Z,6.18
2022-09-10T12:44:45.029Z,5.25
2022-09-10T12:47:50.260Z,5.95
2022-09-10T12:50:53.326Z,5.13
2022-09-10T12:54:00.960Z,6.00
2022-09-10T12:57:21.314Z,11.88
2022-09-10T13:00:23.727Z,6.63
2022-09-10T13:03:26.670Z,5.97
2022-09-10T13:06:35.199Z,5.80
2022-09-10T13:09:38.128Z,5.65
2022-09-10T13:12:41.663Z,5.90
2022-09-10T13:15:49.822Z,6.10
2022-09-10T13:18:56.373Z,6.15
2022-09-10T13:21:58.710Z,6.32
2022-09-10T13:25:24.037Z,6.30
2022-09-10T13:28:32.850Z,6.20
2022-09-10T13:31:35.359Z,6.35
2022-09-10T13:34:57.192Z,6.95
2022-09-10T13:38:12.834Z,6.57
2022-09-10T13:41:21.047Z,6.43
2022-09-10T13:44:25.731Z,6.70
2022-09-10T13:47:47.678Z,6.60
2022-09-10T13:51:08.427Z,7.05
2022-09-10T13:54:26.480Z,7.03
2022-09-10T13:57:38.667Z,7.38
2022-09-10T14:00:42.240Z,6.97
2022-09-10T14:03:46.480Z,6.57
2022-09-10T14:06:48.335Z,7.30
2022-09-10T14:09:51.463Z,6.90
2022-09-10T14:12:53.376Z,6.63
2022-09-10T14:15:57.690Z,6.97
2022-09-10T14:19:01.922Z,7.65
2022-09-10T14:22:07.147Z,8.75
2022-09-10T14:25:27.953Z,7.13
2022-09-10T14:28:29.545Z,8.98
2022-09-10T14:31:33.564Z,6.95
2022-09-10T14:34:38.253Z,9.40
2022-09-10T14:37:42.832Z,6.65
2022-09-10T14:40:47.552Z,6.75
2022-09-10T14:44:09.108Z,8.50
2022-09-10T14:47:10.817Z,7.07
2022-09-10T14:50:31.140Z,8.20
2022-09-10T14:53:32.885Z,8.38
2022-09-10T14:56:39.134Z,7.90
2022-09-10T14:59:44.702Z,8.85
2022-09-10T15:02:46.288Z,9.20
2022-09-10T15:05:48.198Z,10.53
2022-09-10T15:08:51.373Z,8.73
2022-09-10T15:11:54.509Z,8.13
2022-09-10T15:14:57.216Z,6.70
2022-09-10T15:17:58.869Z,5.10
2022-09-10T15:21:01.013Z,4.80
2022-09-10T15:24:02.773Z,5.00
2022-09-10T15:27:04.497Z,5.40
2022-09-10T15:30:06.594Z,6.40
2022-09-10T15:33:12.405Z,8.03
2022-09-10T15:36:14.034Z,9.00
2022-09-10T15:39:16.082Z,7.50
2022-09-10T15:42:18.192Z,8.07
2022-09-10T15:45:19.792Z,8.07
2022-09-10T15:48:21.423Z,8.57
2022-09-10T15:51:23.864Z,9.77
2022-09-10T15:54:26.348Z,7.67
2022-09-10T15:57:28.038Z,7.93
2022-09-10T16:00:29.843Z,7.57
2022-09-10T16:03:31.808Z,9.80
2022-09-10T16:06:34.796Z,9.40
2022-09-10T16:09:36.668Z,10.50
2022-09-10T16:12:38.408Z,9.70
2022-09-10T16:15:40.625Z,10.00
2022-09-10T16:18:42.308Z,16.27
2022-09-10T16:21:46.904Z,17.73
2022-09-10T16:24:48.463Z,46.60
2022-09-10T16:27:50.045Z,18.17
2022-09-10T16:30:53.177Z,12.93
2022-09-10T16:33:59.352Z,9.63
2022-09-10T16:37:01.055Z,9.70
2022-09-10T16:40:05.335Z,9.50
2022-09-10T16:43:07.026Z,9.40
2022-09-10T16:46:10.477Z,9.00
2022-09-10T16:49:13.671Z,8.53
2022-09-10T16:52:15.298Z,8.97
2022-09-10T16:55:17.087Z,10.00
2022-09-10T16:58:18.665Z,9.77
2022-09-10T17:01:21.398Z,9.43
2022-09-10T17:04:28.796Z,9.50
2022-09-10T17:07:30.851Z,11.53
2022-09-10T17:10:32.417Z,10.30
2022-09-10T17:13:34.023Z,10.83
2022-09-10T17:16:37.785Z,10.80
2022-09-10T17:19:41.590Z,12.63
2022-09-10T17:22:43.719Z,10.40
2022-09-10T17:25:45.407Z,10.10
2022-09-10T17:28:57.000Z,10.37
2022-09-10T17:31:59.132Z,8.70
2022-09-10T17:35:01.912Z,8.43
2022-09-10T17:38:03.674Z,9.50
2022-09-10T17:41:05.316Z,9.97
2022-09-10T17:44:08.033Z,8.77
2022-09-10T17:47:09.689Z,9.13
2022-09-10T17:50:12.593Z,9.00
2022-09-10T17:53:18.015Z,9.47
2022-09-10T17:56:23.061Z,9.83
2022-09-10T17:59:25.345Z,10.60
2022-09-10T18:02:27.011Z,9.53
2022-09-10T18:05:29.112Z,8.90
2022-09-10T18:08:34.004Z,9.00
2022-09-10T18:11:37.489Z,9.40
2022-09-10T18:14:39.565Z,9.03
2022-09-10T18:17:41.923Z,7.97
2022-09-10T18:20:43.536Z,8.67
2022-09-10T18:23:50.248Z,7.43
2022-09-10T18:26:53.831Z,8.40
2022-09-10T18:29:55.436Z,8.00
2022-09-10T18:32:57.672Z,8.13
2022-09-10T18:35:59.251Z,9.00
2022-09-10T18:39:04.966Z,8.97
2022-09-10T18:42:06.633Z,8.90
2022-09-10T18:45:08.832Z,9.07
2022-09-10T18:48:10.482Z,9.07
2022-09-10T18:51:12.879Z,8.90
2022-09-10T18:54:18.123Z,9.37
2022-09-10T18:57:19.713Z,8.77
2022-09-10T19:00:21.501Z,8.40
2022-09-10T19:03:23.341Z,9.57
2022-09-10T19:06:29.404Z,9.10
2022-09-10T19:09:31.258Z,8.60
2022-09-10T19:12:33.075Z,8.70
2022-09-10T19:15:34.655Z,12.10
2022-09-10T19:18:36.419Z,9.47
2022-09-10T19:21:38.714Z,9.77
2022-09-10T19:24:56.254Z,9.30
2022-09-10T19:27:58.049Z,8.87
2022-09-10T19:31:04.430Z,9.30
2022-09-10T19:34:06.854Z,9.10
2022-09-10T19:37:08.479Z,9.77
2022-09-10T19:40:11.951Z,10.17
2022-09-10T19:43:13.900Z,11.90
2022-09-10T19:46:16.410Z,11.10
2022-09-10T19:49:18.538Z,11.07
2022-09-10T19:52:21.602Z,10.63
2022-09-10T19:55:23.778Z,10.37
2022-09-10T19:58:25.357Z,11.43
2022-09-10T20:01:31.167Z,10.30
2022-09-10T20:04:33.561Z,10.90
2022-09-10T20:07:35.531Z,10.43
2022-09-10T20:10:38.133Z,9.80
2022-09-10T20:13:39.762Z,10.87
2022-09-10T20:16:42.992Z,11.17
2022-09-10T20:19:47.450Z,11.43
2022-09-10T20:22:49.036Z,11.33
2022-09-10T20:25:50.817Z,12.37
2022-09-10T20:28:53.680Z,12.13
2022-09-10T20:31:55.344Z,11.43
2022-09-10T20:34:57.117Z,11.37
2022-09-10T20:37:59.086Z,12.17
2022-09-10T20:41:01.141Z,12.27
2022-09-10T20:44:02.701Z,12.27
2022-09-10T20:47:04.558Z,11.33
2022-09-10T20:50:06.523Z,12.40
2022-09-10T20:53:08.237Z,12.60
2022-09-10T20:56:14.445Z,11.63
2022-09-10T20:59:17.263Z,11.70
2022-09-10T21:02:18.902Z,12.60
2022-09-10T21:05:21.773Z,12.93
2022-09-10T21:08:25.069Z,12.60
2022-09-10T21:11:28.576Z,11.90
2022-09-10T21:14:31.620Z,11.13
2022-09-10T21:17:33.243Z,11.33
2022-09-10T21:20:34.841Z,11.10
2022-09-10T21:23:41.105Z,12.80
2022-09-10T21:26:45.420Z,11.57
2022-09-10T21:29:47.197Z,11.57
2022-09-10T21:32:48.838Z,11.73
2022-09-10T21:35:58.411Z,13.93
2022-09-10T21:39:00.787Z,12.40
2022-09-10T21:42:03.632Z,11.83
2022-09-10T21:45:05.416Z,12.23
2022-09-10T21:48:06.981Z,11.43
2022-09-10T21:51:11.658Z,11.53
2022-09-10T21:54:14.765Z,11.33
2022-09-10T21:57:16.389Z,12.33
2022-09-10T22:00:19.137Z,11.57
2022-09-10T22:03:20.783Z,12.23
2022-09-10T22:06:23.797Z,13.10
2022-09-10T22:09:26.329Z,12.73
2022-09-10T22:12:28.306Z,13.30
2022-09-10T22:15:29.956Z,13.60
2022-09-10T22:18:32.312Z,12.47
2022-09-10T22:21:36.108Z,16.43
2022-09-10T22:24:37.978Z,13.87
2022-09-10T22:27:39.635Z,12.23
2022-09-10T22:30:42.390Z,12.43
2022-09-10T22:33:45.064Z,12.33
2022-09-10T22:36:47.339Z,13.43
2022-09-10T22:39:48.945Z,11.97
2022-09-10T22:42:51.033Z,13.40
2022-09-10T22:45:52.616Z,12.23
2022-09-10T22:48:54.267Z,12.17
2022-09-10T22:51:55.859Z,12.67
2022-09-10T22:54:57.438Z,13.03
2022-09-10T22:57:59.092Z,12.17
2022-09-10T23:01:04.717Z,11.60
2022-09-10T23:04:07.269Z,11.73
2022-09-10T23:07:09.500Z,11.30
2022-09-10T23:10:11.425Z,11.13
2022-09-10T23:13:13.000Z,12.00
2022-09-10T23:16:19.065Z,11.97
2022-09-10T23:19:22.014Z,13.23
2022-09-10T23:22:23.577Z,14.03
2022-09-10T23:25:25.156Z,13.80
2022-09-10T23:28:27.356Z,13.77
2022-09-10T23:31:29.606Z,14.60
2022-09-10T23:34:31.159Z,15.13
2022-09-10T23:37:32.846Z,14.43
2022-09-10T23:40:34.404Z,14.43
2022-09-10T23:43:36.056Z,15.23
2022-09-10T23:46:37.962Z,13.63
2022-09-10T23:49:39.541Z,14.43
2022-09-10T23:52:41.110Z,14.63
2022-09-10T23:55:42.675Z,14.77
2022-09-10T23:58:44.656Z,14.37
